SKBQ/BAQ METAR and TAF weather

Enter ICAO airport designator
Station Type Date Time Source
SKBQ METAR 2019/10/22 17:00 UTC NOAA

SKBQ 221700Z 20006KT 9999 SCT015TCU BKN200 30/25 A2987 NOSIG RMK TCU/NE


Station Type Date Time Source
SKBQ Decoded METAR 2019/10/22 17:00 UTC NOAA

Barranquilla / Ernestocortissoz, Colombia (SKBQ) 10-53N 074-47W 30M
Oct 22, 2019 - 01:00 PM EDT / 2019.10.22 1700 UTC
Wind: from the SSW (200 degrees) at 7 MPH (6 KT):0
Visibility: greater than 7 mile(s):0
Sky conditions: mostly cloudy
Weather: Towering cumulus clouds observed
Temperature: 86 F (30 C)
Heat index: 96.8 F (36.0 C):1
Dew Point: 77 F (25 C)
Relative Humidity: 74%
Pressure (altimeter): 29.87 in. Hg (1011 hPa)
ob: SKBQ 221700Z 20006KT 9999 SCT015TCU BKN200 30/25 A2987 NOSIG RMK TCU/NE
cycle: 17

Station Type Date Time Source
SKBQ TAF 2019/10/22 18:42 UTC NOAA

TAF SKBQ 221630Z 2218/2318 15004KT 9999 SCT015
TEMPO 2219/2223 5000 TSRA BKN010 FEW015CB PROB30
TEMPO 2306/2309 DZ BKN010 SCT070
TEMPO 2309/2313 3000 BR BKN008 TX30/2317Z TN24/2310Z

Example: see airport list